Date,TemperatureHighF,TemperatureAvgF,TemperatureLowF,DewpointHighF,DewpointAvgF,DewpointLowF,HumidityHigh,HumidityAvg,HumidityLow,PressureMaxIn,PressureMinIn,WindSpeedMaxMPH,WindSpeedAvgMPH,GustSpeedMaxMPH,PrecipitationSumIn
2012-1-1,46,41,36,43,37,33,94,87,78,29.32,29.20,29,15,38,0.06
2012-1-2,38,36,33,35,33,31,97,87,78,29.38,29.19,29,18,42,0.01
2012-1-3,50,41,35,47,38,34,98,88,68,29.29,28.46,59,28,85,0.22
2012-1-5,41,38,35,32,31,29,86,76,62,29.89,29.51,21,12,26,0.04
2012-1-6,48,41,35,47,38,30,98,89,70,30.01,29.71,34,14,42,0.00
2012-1-7,44,42,40,39,37,34,93,84,75,30.04,29.73,34,19,42,0.00
2012-1-8,48,46,41,48,44,36,98,95,79,30.12,30.03,26,13,40,0.00
2012-1-9,47,43,39,46,39,35,98,87,73,30.28,29.95,25,13,34,0.00
2012-1-10,47,44,39,46,42,37,98,91,82,30.23,30.13,24,13,32,0.00
2012-1-11,49,46,42,48,45,41,98,95,89,30.27,29.88,34,15,53,0.00
2012-1-12,49,42,36,48,37,31,98,81,66,30.35,29.77,37,14,49,0.06
2012-1-13,38,34,31,35,32,28,95,90,80,30.45,30.34,8,4,14,0.00
2012-1-14,40,38,31,37,34,26,94,87,80,30.37,30.20,12,5,15,0.00
2012-1-15,39,32,27,33,29,25,97,87,73,30.20,30.13,13,3,17,0.00
2012-1-16,43,33,26,32,28,24,93,84,58,30.18,30.10,22,4,28,0.00
2012-1-17,44,40,35,43,38,32,98,93,87,30.14,29.86,34,17,42,0.00
2012-1-18,50,43,39,49,40,34,98,89,68,29.97,29.75,37,18,47,0.00
2012-1-19,40,35,32,38,33,31,98,92,73,29.85,29.68,26,15,36,0.07
2012-1-20,48,40,33,46,38,30,98,93,78,29.87,29.55,33,12,45,0.01
2012-1-22,43,40,37,42,37,34,98,87,72,29.82,29.36,34,18,48,0.05
2012-1-23,41,37,35,35,33,32,95,87,71,29.98,29.78,18,11,27,0.00
2012-1-24,46,39,34,45,38,34,98,96,87,29.96,29.77,23,8,30,0.04
2012-1-25,48,46,37,47,44,37,98,93,85,29.77,29.36,45,21,58,0.04
2012-1-26,39,35,32,37,33,31,98,94,83,29.59,29.38,15,9,21,0.04
2012-1-27,36,34,31,36,34,30,98,98,98,30.22,29.59,14,6,19,0.00
2012-1-28,41,34,30,35,31,29,98,91,75,30.42,30.22,6,4,8,0.00
2012-1-29,39,35,32,35,33,29,98,91,74,30.40,30.32,19,8,24,0.00
2012-1-30,37,34,31,34,29,24,97,84,63,30.32,30.25,17,8,21,0.00
2012-1-31,38,34,33,32,27,23,86,76,60,30.53,30.24,21,8,26,0.00
2012-2-1,41,33,27,27,24,22,83,69,47,30.71,30.52,21,8,25,0.00
2012-2-2,34,30,26,23,22,19,80,69,55,30.70,30.62,13,7,17,0.00
2012-2-3,36,33,30,30,26,21,91,76,65,30.65,30.55,19,10,24,0.00
2012-2-4,38,36,34,37,34,30,97,93,83,30.55,30.09,39,20,50,0.00
2012-2-5,42,38,36,39,37,34,98,94,86,30.41,30.17,17,7,23,0.00
2012-2-6,49,38,30,39,34,29,98,86,55,30.66,30.40,11,4,15,0.00
2012-2-7,41,35,28,33,30,26,98,83,63,30.75,30.62,20,8,28,0.00
2012-2-8,34,32,28,30,23,16,93,71,49,30.74,30.61,17,5,21,0.00
2012-2-9,41,38,34,40,38,30,98,97,85,30.61,30.50,16,5,23,0.07
2012-2-10,40,38,35,39,36,34,98,95,90,30.55,30.48,14,4,19,0.00
2012-2-11,40,38,35,40,37,35,98,96,91,30.58,30.44,11,4,15,0.00
2012-2-12,44,40,34,42,37,32,98,91,76,30.60,30.51,14,5,21,0.01
2012-2-13,48,43,36,41,35,31,98,75,57,30.43,30.26,23,11,34,0.01
2012-2-14,47,43,38,40,36,31,91,76,66,30.40,30.24,28,15,37,0.00
2012-2-15,51,45,40,41,38,34,89,78,59,30.36,30.24,27,14,32,0.00
2012-2-16,50,44,39,48,41,36,98,90,73,30.32,30.10,26,14,36,0.00
2012-2-17,48,44,40,47,41,35,98,89,75,30.13,29.66,36,16,53,0.00
2012-2-18,45,37,31,42,32,25,98,83,64,29.91,29.42,36,18,49,0.06
2012-2-19,41,34,28,32,24,19,93,68,43,30.32,27.93,17,10,22,0.00
2012-2-20,47,44,35,46,42,31,98,93,82,30.27,29.97,33,19,51,0.00
2012-2-21,51,49,46,49,47,44,98,93,86,30.09,29.91,33,17,46,0.00
2012-2-22,54,50,46,53,49,45,98,96,93,29.91,29.62,36,20,56,0.02
2012-2-23,52,50,46,51,49,46,98,98,94,29.98,29.88,39,21,53,0.00
2012-2-24,48,44,40,48,38,31,98,80,56,30.30,29.96,35,20,49,0.00
2012-2-25,41,40,40,40,38,37,97,92,89,30.29,30.19,21,12,28,0.00
2012-2-29,53,48,46,47,45,44,95,90,79,30.14,30.10,23,13,31,0.00
2012-3-1,54,47,43,49,45,42,98,90,73,30.33,30.08,27,10,36,0.00
2012-3-2,53,45,41,47,42,39,98,91,78,30.33,30.09,16,7,20,0.00
2012-3-3,51,42,38,42,39,36,97,89,66,30.09,29.82,24,11,30,0.00
2012-3-4,47,37,33,38,33,28,98,85,53,30.18,29.95,19,8,24,0.06
2012-3-5,50,39,32,35,30,24,97,74,41,30.35,30.17,12,5,16,0.00
2012-3-6,45,41,32,44,36,28,97,82,68,30.32,29.66,46,22,59,0.00
2012-3-7,50,39,33,48,36,25,98,87,51,30.01,29.52,42,17,55,0.01
2012-3-8,48,44,34,45,41,33,98,89,80,30.27,30.00,24,14,34,0.01
2012-3-9,54,49,44,50,45,37,96,87,74,30.38,30.12,36,19,50,0.00
2012-3-10,47,46,44,44,42,38,97,88,75,30.60,30.30,27,14,37,0.00
2012-3-11,50,47,44,48,45,42,98,94,87,30.62,30.55,27,16,36,0.00
2012-3-12,48,45,43,44,43,42,98,92,82,30.56,30.50,24,11,28,0.00
2012-3-13,46,43,41,43,40,39,98,91,79,30.56,30.49,15,9,19,0.00
2012-3-19,49,44,38,47,40,35,98,87,72,30.30,30.22,24,14,36,0.00
2012-3-20,52,49,47,49,48,47,98,96,85,30.42,30.25,24,14,35,0.00
2012-3-25,67,54,48,48,45,44,86,73,45,30.62,30.58,8,5,9,0.00
2012-3-26,77,56,46,45,37,27,88,52,17,30.66,30.60,8,4,10,0.00
2012-3-27,64,49,45,36,31,23,64,50,35,30.65,30.62,10,5,14,0.00
2012-3-28,64,55,47,40,34,24,72,48,21,30.59,30.44,17,9,24,0.00
2012-3-29,61,51,44,44,39,30,95,65,44,30.45,30.33,21,10,26,0.00
2012-3-30,56,49,43,46,44,42,97,82,63,30.35,30.22,18,11,24,0.00
2012-3-31,58,46,36,34,31,29,85,58,36,30.25,30.23,8,5,11,0.00
2012-4-2,43,40,39,42,40,38,98,98,98,29.87,29.66,15,6,24,0.01
2012-4-3,43,35,32,42,32,20,98,90,55,29.99,29.53,35,16,53,0.33
2012-4-4,36,34,33,32,30,28,91,85,75,30.01,29.99,17,10,28,0.00
2012-4-5,49,40,28,41,35,24,98,82,62,30.25,30.00,16,9,22,0.00
2012-4-10,41,40,39,40,40,38,98,98,98,29.24,29.19,7,5,9,0.58
2012-4-11,61,46,38,43,38,28,98,79,32,29.60,29.24,10,3,20,0.04
2012-4-12,55,43,38,41,36,22,98,80,28,29.77,29.60,18,3,23,0.05
2012-4-13,52,42,32,39,31,21,98,69,30,29.82,29.72,14,3,17,0.00
2012-4-14,54,40,31,34,30,20,97,70,29,30.11,29.82,16,4,24,3.34
2012-4-15,51,41,31,32,23,8,95,52,20,30.31,30.11,13,5,18,0.00
2012-4-16,49,42,30,35,28,15,88,60,30,30.30,29.74,21,8,27,0.00
2012-4-17,50,42,37,41,37,32,97,81,53,29.72,29.16,36,15,52,0.09
2012-4-18,52,44,35,42,38,35,98,83,58,29.24,29.09,19,8,27,0.02
2012-4-19,48,43,40,44,42,40,98,97,88,29.31,29.22,16,6,20,0.09
2012-4-20,58,45,40,46,42,38,98,90,53,29.34,29.24,8,3,11,0.02
2012-4-21,53,44,40,47,43,40,98,94,68,29.50,29.31,8,3,11,0.25
2012-4-22,54,46,40,44,41,36,98,85,51,29.60,29.50,13,5,18,0.06
2012-4-23,51,44,40,42,39,36,98,83,62,29.56,29.47,18,5,26,0.00
2012-4-24,53,43,39,46,40,38,98,90,58,29.56,29.51,14,5,20,0.12
2012-4-25,44,41,38,44,41,38,98,98,96,29.51,29.29,26,13,35,0.18
2012-4-26,47,42,40,45,42,38,98,97,90,29.71,29.27,24,11,33,0.35
2012-4-27,51,41,32,39,34,27,98,80,39,30.20,29.71,14,6,22,0.01
2012-4-28,49,42,34,38,34,26,98,74,44,30.35,30.20,20,8,27,0.01
2012-4-29,43,39,34,39,36,30,98,88,68,30.29,29.98,25,12,36,0.12
2012-4-30,47,43,38,43,42,38,98,98,98,30.33,29.95,23,13,30,0.26
2012-5-1,49,44,41,48,43,41,98,97,87,30.36,30.30,17,12,27,0.00
2012-5-2,54,46,40,46,43,40,98,91,72,30.36,30.24,14,7,21,0.00
2012-5-3,62,48,39,48,43,38,98,83,53,30.24,29.88,11,5,16,0.00
2012-5-4,47,42,34,42,30,19,95,62,41,29.96,29.85,14,5,19,0.04
2012-5-5,54,42,28,29,20,-12,93,48,10,30.00,29.93,11,3,15,0.00
2012-5-6,51,42,33,38,34,26,96,74,48,30.00,29.92,11,4,14,0.02
2012-5-7,50,42,32,42,36,28,98,80,48,29.99,29.63,20,8,26,0.07
2012-5-8,54,47,39,47,39,32,98,75,53,29.69,29.58,21,9,26,0.11
2012-5-9,58,47,38,40,37,31,96,71,39,29.85,29.67,14,6,19,0.00
2012-5-10,43,40,39,42,40,38,98,98,87,29.84,29.68,23,11,30,0.77
2012-5-11,46,41,36,44,40,36,98,97,89,30.49,29.84,20,7,24,0.27
2012-5-12,54,47,36,43,38,30,98,72,43,30.62,30.49,23,11,31,0.00
2012-5-13,50,45,42,46,42,37,98,88,70,30.49,29.72,37,19,56,0.18
2012-5-14,52,46,40,44,40,34,97,80,58,29.82,29.70,28,14,37,0.01
2012-5-15,55,45,37,42,32,18,98,62,27,30.20,29.82,18,7,24,0.05
2012-5-16,50,44,33,40,34,27,93,70,47,30.23,30.15,20,9,27,0.00
2012-5-17,48,44,42,45,43,40,98,94,82,30.15,29.94,13,6,17,0.30
2012-5-18,43,40,39,42,40,38,98,98,98,30.01,29.88,20,12,29,0.40
2012-5-19,52,43,36,43,40,36,98,90,67,30.04,29.95,16,8,24,0.01
2012-5-20,57,47,34,45,40,34,98,78,58,30.03,29.93,14,5,18,0.00
2012-5-21,61,51,41,48,44,39,98,81,47,30.01,29.89,14,6,21,0.00
2012-5-22,70,58,44,57,50,44,98,78,49,30.23,29.99,15,4,21,0.00
2012-5-23,73,63,48,59,55,47,98,75,51,30.39,30.23,13,3,18,0.00
2012-5-24,77,67,55,60,57,53,98,70,48,30.47,30.38,11,3,14,0.00
2012-5-25,73,60,51,59,53,43,98,81,36,30.49,30.43,17,6,23,0.00
2012-5-26,70,61,49,54,48,40,98,65,35,30.45,30.32,17,7,24,0.00
2012-5-27,75,64,50,56,51,47,98,66,39,30.32,30.19,12,6,18,0.00
2012-5-28,74,62,50,54,50,43,98,68,35,30.19,30.11,18,7,23,0.00
2012-5-29,65,53,48,58,52,47,98,95,75,30.14,30.04,11,3,16,0.00
2012-5-30,56,52,48,56,51,48,98,98,98,30.07,29.23,8,2,11,0.05
2012-5-31,57,51,46,56,51,45,98,98,98,30.11,29.16,14,5,21,0.44
2012-6-1,70,54,46,53,49,42,98,83,41,30.19,30.09,11,4,16,0.00
2012-6-2,52,47,42,48,40,32,98,77,50,30.12,29.99,16,8,23,0.00
2012-6-3,55,47,40,43,38,26,95,73,37,30.04,29.91,20,9,28,0.00
2012-6-4,63,51,35,44,36,17,98,59,20,30.09,30.01,13,4,19,0.01
2012-6-5,61,52,44,49,41,26,98,68,27,30.02,29.66,14,4,18,0.04
2012-6-6,56,52,48,56,51,48,98,98,98,29.66,29.47,8,3,14,0.14
2012-6-9,68,56,50,57,53,49,98,90,57,29.81,29.51,9,4,12,0.18
2012-6-10,54,51,47,54,50,47,98,98,98,29.84,29.79,8,4,13,0.01
2012-6-11,55,48,45,49,47,45,98,93,73,29.88,29.78,10,5,14,0.01
2012-6-12,61,51,44,49,44,40,98,78,45,30.01,29.87,9,3,12,0.00
2012-6-13,65,53,44,46,39,26,98,65,22,30.10,30.00,14,4,18,0.00
2012-6-14,62,52,43,45,42,40,94,71,48,30.13,30.01,22,10,30,0.00
2012-6-15,48,46,45,47,46,44,98,97,91,30.02,29.65,17,12,30,0.31
2012-6-16,50,48,46,49,47,46,98,98,98,29.67,29.55,20,10,29,1.48
2012-6-17,54,49,44,53,48,43,98,98,98,30.04,29.67,14,4,18,0.37
2012-6-18,64,53,41,49,43,31,98,73,32,30.03,29.98,15,5,23,0.00
2012-6-19,62,56,47,51,44,30,95,67,32,30.11,29.97,17,8,24,0.00
2012-6-20,64,56,45,54,48,38,97,73,40,30.13,30.04,13,6,18,0.00
2012-6-21,55,52,48,54,51,46,98,98,87,30.04,29.56,17,8,27,0.33
2012-6-22,63,54,50,61,54,50,98,98,94,29.62,29.43,13,4,17,0.74
2012-6-23,58,53,50,55,52,50,98,96,82,29.86,29.62,29,13,39,0.07
2012-6-24,62,55,50,58,53,50,98,91,80,29.91,29.73,16,8,23,0.08
2012-6-25,69,58,47,54,50,44,98,75,42,30.13,29.90,11,3,17,0.00
2012-6-26,70,59,45,58,53,41,98,83,36,30.14,30.00,11,3,14,0.15
2012-6-27,61,56,52,60,55,52,98,98,98,30.00,29.89,9,3,15,0.25
2012-6-28,70,60,54,69,60,53,98,97,88,29.90,29.42,32,9,38,0.21
2012-6-29,61,57,54,60,57,54,98,97,88,29.45,29.32,27,15,40,0.27
2012-6-30,64,56,49,58,53,48,98,90,68,29.65,29.45,21,9,30,0.02
2012-7-1,60,54,49,58,52,47,98,93,71,29.88,29.62,17,7,25,0.02
2012-7-2,63,56,50,62,56,50,98,98,96,29.88,29.82,9,4,14,0.19
2012-7-3,66,60,55,63,59,54,98,96,85,29.88,29.82,13,4,16,0.01
2012-7-4,73,62,55,66,61,55,98,96,72,29.90,29.75,11,4,17,1.00
2012-7-5,63,58,54,62,57,54,98,98,98,30.00,29.88,13,5,17,0.01
2012-7-6,58,55,54,55,54,53,98,98,98,30.01,29.93,19,10,30,0.14
2012-7-7,56,53,50,56,52,50,98,98,98,29.96,29.89,20,8,29,1.39
2012-7-8,60,54,50,59,54,50,98,98,98,29.91,29.84,10,3,15,0.04
2012-7-9,55,53,50,54,52,50,98,98,98,29.93,29.85,13,4,17,0.44
2012-7-10,56,52,49,55,51,48,98,98,98,29.92,29.84,10,5,14,0.08
2012-7-11,57,51,48,56,51,48,98,98,98,29.88,29.80,9,2,12,0.50
2012-7-12,63,55,48,59,53,47,98,94,73,29.90,29.81,11,2,15,0.01
2012-7-13,57,52,48,53,50,47,98,94,82,29.81,29.70,11,5,15,0.00
2012-7-14,66,54,47,54,50,44,98,86,49,29.84,29.70,7,2,11,0.05
2012-7-15,60,53,46,54,50,46,98,88,64,29.98,29.81,22,11,32,0.00
2012-7-16,62,56,49,60,55,48,98,96,87,30.04,29.94,12,5,18,0.06
2012-7-17,61,56,48,56,53,48,98,92,68,30.14,29.96,11,4,15,0.05
2012-7-18,57,54,49,56,53,49,98,98,98,29.95,29.68,23,6,31,1.20
2012-7-19,67,56,47,58,51,44,98,83,45,29.99,29.77,12,4,16,0.01
2012-7-20,63,55,45,51,47,43,98,77,49,30.17,30.00,7,3,9,0.00
2012-7-21,61,54,46,54,49,45,98,83,60,30.26,30.17,13,7,17,0.00
2012-7-22,66,60,54,62,58,49,98,93,79,30.23,29.97,33,19,45,0.00
2012-7-23,61,60,60,60,60,60,98,98,98,29.99,29.96,28,17,42,0.00
2012-7-24,61,57,56,60,56,55,98,96,94,30.14,29.99,13,4,19,0.41
2012-7-25,70,61,50,61,55,49,98,82,51,30.24,30.11,10,4,16,0.02
2012-7-26,66,56,52,60,54,51,98,92,78,30.25,30.16,8,3,11,0.00
2012-7-27,66,56,50,59,50,46,98,81,62,30.17,29.83,24,13,34,0.02
2012-7-28,61,54,49,56,52,49,98,93,68,29.84,29.68,23,8,30,0.05
2012-7-29,61,53,48,56,51,48,98,93,72,29.82,29.68,19,9,27,0.07
2012-7-30,58,52,47,54,50,46,98,92,72,29.94,29.81,17,7,25,0.11
2012-7-31,68,58,46,54,49,38,98,76,35,29.95,29.75,17,5,24,0.05
2012-8-1,67,61,55,64,60,55,98,97,86,29.75,28.80,21,10,27,0.12
2012-8-2,67,58,51,59,55,50,98,89,63,29.82,29.65,11,4,18,0.01
2012-8-3,68,60,50,59,55,50,98,84,55,29.87,29.80,11,4,17,0.00
2012-8-4,70,62,54,62,59,53,98,88,65,29.86,29.81,12,4,17,0.00
2012-8-5,59,55,53,59,55,53,98,98,98,29.82,29.73,9,4,14,0.39
2012-8-6,73,58,52,71,57,52,98,97,82,29.90,29.71,8,2,11,0.37
2012-8-7,66,58,50,59,55,49,98,90,73,30.19,29.90,15,7,21,0.01
2012-8-8,75,62,48,58,53,48,98,76,42,30.32,30.18,9,3,12,0.00
2012-8-9,70,59,50,55,52,47,98,80,49,30.41,30.30,11,5,17,0.00
2012-8-10,75,63,48,59,55,48,98,77,44,30.42,30.37,13,3,16,0.00
2012-8-11,63,54,47,58,52,47,98,93,71,30.37,30.28,11,3,14,0.00
2012-8-12,69,60,54,60,56,53,98,89,66,30.11,29.90,21,11,27,0.00
2012-8-13,70,62,57,66,61,56,98,94,76,29.90,29.77,16,10,22,0.01
2012-8-14,72,64,57,65,60,55,98,87,59,29.95,29.79,15,6,23,0.02
2012-8-15,70,62,54,66,60,54,98,95,79,29.95,29.61,21,9,34,0.11
2012-8-16,70,62,55,60,57,53,98,83,62,29.94,29.65,23,12,30,0.02
2012-8-17,71,63,56,68,62,56,98,96,79,29.93,29.72,23,10,30,0.18
2012-8-18,69,65,56,68,62,54,98,90,63,30.06,29.79,18,7,27,0.00
2012-8-19,69,60,51,62,57,50,98,89,68,30.08,30.02,9,3,13,0.07
2012-8-20,68,59,51,62,57,51,98,94,75,30.05,30.01,17,7,24,0.01
2012-8-21,67,60,53,63,58,53,98,96,81,29.96,29.68,15,6,22,1.52
2012-8-22,64,57,53,61,56,53,98,96,81,29.87,29.77,21,10,30,0.07
2012-8-23,64,57,52,58,54,51,98,91,64,29.86,29.76,17,8,23,0.00
2012-8-24,66,58,53,57,54,49,98,88,58,29.75,29.59,12,5,17,0.00
2012-8-25,59,55,52,59,54,52,98,98,98,29.81,29.56,12,3,18,0.17
2012-8-26,62,54,48,52,48,44,98,82,53,30.01,29.81,17,6,24,0.01
2012-8-27,61,56,51,61,56,51,98,98,96,29.98,29.50,30,16,42,0.11
2012-8-28,65,57,52,58,52,46,98,83,58,29.79,29.52,21,11,31,0.00
2012-8-29,62,53,48,58,52,48,98,96,71,29.76,29.63,22,8,32,0.76
2012-8-30,65,52,44,51,43,32,98,74,30,30.32,29.35,11,3,15,0.01
2012-8-31,56,51,42,55,48,40,98,92,73,30.34,30.18,16,7,25,0.04
2012-9-1,65,58,56,59,56,55,98,95,74,30.18,29.95,22,10,34,0.00
2012-9-2,65,58,53,58,55,52,98,90,70,30.24,29.99,20,9,26,0.00
2012-9-3,70,61,54,61,57,54,98,88,63,30.23,30.03,25,11,37,0.00
2012-9-4,62,57,52,61,50,42,98,77,53,30.21,30.03,27,15,40,0.00
2012-9-6,61,53,47,53,49,46,98,89,73,30.37,30.09,24,10,39,0.00
2012-9-10,58,47,45,52,52,52,82,4,82,30.09,29.63,11,6,32,0.24
2012-9-11,54,48,43,52,52,52,0,0,100,29.81,29.62,30,13,39,0.00
2012-9-12,59,51,42,52,52,52,0,0,100,30.05,29.74,20,8,25,0.00
2012-9-13,58,52,43,52,52,52,0,0,100,30.05,29.55,28,13,43,0.05
2012-9-14,59,53,49,52,52,52,0,0,100,29.91,29.51,31,18,44,0.00
2012-9-15,59,54,49,52,52,52,0,0,100,29.93,29.78,24,12,35,0.00
2012-9-16,58,52,47,52,52,52,0,0,100,29.77,29.62,21,11,33,0.01
2012-9-17,57,50,45,52,52,52,0,0,100,29.69,29.59,21,10,33,0.05
2012-9-18,54,47,42,52,52,52,0,0,100,29.98,29.61,20,11,26,0.01
2012-9-19,56,48,40,52,52,52,0,0,100,30.07,29.98,20,9,27,0.00
2012-9-20,50,46,44,52,52,52,0,0,100,30.05,29.95,14,5,19,0.47
2012-9-21,61,47,37,52,52,52,0,0,100,30.13,30.01,14,2,22,0.05
2012-9-22,59,47,32,52,52,52,0,0,100,30.19,30.09,8,3,11,0.01
2012-9-23,56,48,41,52,52,52,0,0,100,30.09,29.74,21,10,26,0.00
2012-9-24,49,47,45,52,52,52,0,0,100,29.73,29.19,33,17,48,0.22
2012-9-25,50,48,44,52,52,52,0,0,100,29.27,28.93,30,16,58,0.63
2012-9-26,56,50,47,52,52,52,0,0,100,29.66,29.27,20,6,27,0.21
2012-9-27,52,49,45,52,52,52,0,0,100,29.74,29.65,16,6,25,0.04
2012-9-28,53,48,43,52,52,52,0,0,100,29.69,29.58,27,12,36,0.11
2012-9-29,54,49,44,52,52,52,0,0,100,29.96,29.67,30,15,40,0.01
2012-9-30,58,54,50,52,52,52,0,0,100,29.85,29.64,27,16,38,0.12
2012-10-1,56,50,46,52,52,52,0,0,100,29.67,29.53,19,10,28,0.02
2012-10-2,54,48,44,52,52,52,0,0,100,29.57,29.32,16,10,27,0.06
2012-10-3,51,46,42,52,52,52,0,0,100,29.54,29.29,21,9,29,0.02
2012-10-4,54,47,40,52,52,52,0,0,100,29.67,29.53,18,7,24,0.00
2012-10-5,53,46,41,52,52,52,0,0,100,29.73,29.45,17,7,21,0.04
2012-10-6,54,47,38,52,52,52,0,0,100,30.07,29.72,17,6,23,0.00
2012-10-7,57,44,35,52,52,52,0,0,100,30.21,30.07,11,5,14,0.00
2012-10-8,58,47,36,52,52,52,0,0,100,30.15,30.00,9,4,12,0.00
2012-10-9,58,44,30,52,52,52,0,0,100,30.11,30.04,5,2,8,0.00
2012-10-10,58,46,34,52,52,52,0,0,100,30.04,29.79,11,3,14,0.00
2012-10-11,58,50,47,52,52,52,0,0,100,29.79,29.53,17,5,21,0.39
2012-10-12,48,46,44,52,52,52,0,0,100,29.53,29.42,29,12,40,0.64
2012-10-13,47,45,43,52,52,52,0,0,100,29.60,29.50,18,8,27,0.04
2012-10-14,51,44,38,52,52,52,0,0,100,29.68,29.56,14,3,21,0.26
2012-10-15,48,40,34,52,52,52,0,0,100,29.62,29.39,10,4,15,0.01
2012-10-16,43,40,37,52,52,52,0,0,100,29.51,29.22,19,7,27,0.51
2012-10-17,45,41,34,52,52,52,0,0,100,29.51,29.31,18,8,24,0.47
2012-10-18,52,46,42,52,52,52,0,0,100,29.69,29.38,17,6,22,0.20
2012-10-19,48,46,45,52,52,52,0,0,100,29.80,29.68,14,7,19,0.12
2012-10-20,49,48,47,52,52,52,0,0,100,29.83,29.75,13,7,17,0.02
2012-10-25,54,42,36,52,52,52,0,0,100,30.25,30.18,11,5,19,0.21
2012-10-26,43,36,32,52,52,52,0,0,100,30.25,30.07,21,6,27,0.00
2012-10-27,44,37,29,52,52,52,0,0,100,30.22,27.17,16,7,24,0.04
2012-10-28,47,45,41,52,52,52,0,0,100,29.90,29.55,21,10,28,0.01
2012-10-29,46,41,36,52,52,52,0,0,100,29.78,29.61,11,4,16,0.00
2012-10-30,45,44,38,52,52,52,0,0,100,29.66,27.77,25,12,37,0.05
2012-10-31,45,40,35,52,52,52,0,0,100,29.03,28.80,24,7,34,0.45
2012-11-1,43,37,33,52,52,52,0,0,100,28.80,28.70,22,8,31,0.04
2012-11-2,44,40,36,52,52,52,0,0,100,29.19,28.69,27,11,37,0.13
2012-11-3,44,38,35,52,52,52,0,0,100,29.27,29.14,18,11,24,0.00
2012-11-4,47,39,35,52,52,52,0,0,100,29.61,29.25,17,5,21,0.00
2012-11-5,46,39,34,52,52,52,0,0,100,29.96,29.61,10,4,13,0.00
2012-11-6,50,46,36,52,52,52,0,0,100,30.04,29.83,28,17,38,0.07
2012-11-7,49,47,46,52,52,52,0,0,100,30.03,29.79,27,17,42,0.02
2012-11-8,48,45,43,52,52,52,0,0,100,29.91,29.71,27,15,39,0.00
2012-11-9,48,45,41,52,52,52,0,0,100,29.70,29.33,24,13,34,0.00
2012-11-10,46,41,38,52,52,52,0,0,100,29.46,29.23,23,10,30,0.01
2012-11-11,43,40,36,52,52,52,0,0,100,29.96,29.47,12,6,17,0.01
2012-11-12,43,41,38,52,52,52,0,0,100,29.95,29.85,17,9,21,0.00
2012-11-14,49,46,42,52,52,52,0,0,100,30.22,30.09,14,4,17,0.27
2012-11-15,42,41,37,52,52,52,0,0,100,30.21,30.13,7,3,8,0.00
2012-11-16,46,43,41,52,52,52,0,0,100,29.92,29.67,19,10,25,0.00
2012-11-17,43,40,35,52,52,52,0,0,100,29.67,29.59,21,8,29,0.06
2012-11-18,43,39,36,52,52,52,0,0,100,29.80,29.61,21,12,33,0.01
2012-11-19,52,48,38,52,52,52,0,0,100,29.60,29.29,52,27,66,0.15
2012-11-20,54,50,44,52,52,52,0,0,100,29.57,29.34,34,17,46,0.01
2012-11-21,48,44,42,52,52,52,0,0,100,29.71,29.57,27,12,39,0.00
2012-11-22,51,44,38,52,52,52,0,0,100,29.61,29.28,41,19,56,0.33
2012-11-23,44,40,37,52,52,52,0,0,100,29.82,29.30,29,12,36,0.12
2012-11-24,41,37,35,52,52,52,0,0,100,29.93,29.63,14,6,19,0.01
2012-11-25,41,38,35,52,52,52,0,0,100,29.63,29.40,11,4,17,0.38
2012-11-26,41,39,36,52,52,52,0,0,100,29.81,29.59,13,6,21,0.00
2012-11-27,42,39,37,52,52,52,0,0,100,30.07,29.80,9,5,14,0.00
2012-11-28,42,34,30,52,52,52,0,0,100,30.10,30.03,11,4,14,0.00
2012-11-29,38,32,29,52,52,52,0,0,100,29.91,29.81,6,3,9,0.00
2012-11-30,41,34,27,52,52,52,0,0,100,29.87,29.76,11,4,15,0.18
2012-12-1,39,33,31,52,52,52,0,0,100,29.96,29.82,14,6,19,0.01
2012-12-2,38,32,28,52,52,52,0,0,100,29.96,29.73,13,4,17,0.00
2012-12-3,39,36,32,52,52,52,0,0,100,29.72,29.44,23,11,33,0.02
2012-12-4,36,34,25,52,52,52,0,0,100,29.71,29.43,13,4,18,0.01
2012-12-5,35,29,24,52,52,52,0,0,100,29.96,29.70,11,4,14,0.00
2012-12-6,36,34,28,52,52,52,0,0,100,29.92,29.25,38,15,50,0.06
2012-12-7,38,36,31,52,52,52,0,0,100,30.08,29.33,18,6,27,0.11
2012-12-8,46,41,32,52,52,52,0,0,100,30.12,29.90,30,13,47,0.01
2012-12-9,44,40,36,52,52,52,0,0,100,30.14,29.82,27,13,45,0.01
2012-12-10,38,33,27,52,52,52,0,0,100,30.44,30.14,8,3,11,0.00
2012-12-11,36,30,24,52,52,52,0,0,100,30.43,30.22,7,3,11,0.00
2012-12-12,34,32,26,52,52,52,0,0,100,30.21,29.81,8,4,9,0.00
2012-12-13,35,32,29,52,52,52,0,0,100,29.81,29.47,24,8,30,0.00
2012-12-14,40,36,29,52,52,52,0,0,100,29.47,28.65,27,12,40,0.26
2012-12-15,43,41,35,52,52,52,0,0,100,29.21,28.67,24,12,34,0.02
2012-12-16,45,41,37,52,52,52,0,0,100,29.36,29.21,19,10,25,0.01
2012-12-17,43,39,36,52,52,52,0,0,100,29.74,29.28,14,3,18,0.04
2012-12-18,43,40,37,52,52,52,0,0,100,30.11,29.74,17,4,20,0.04
2012-12-19,42,40,38,52,52,52,0,0,100,30.07,29.82,29,16,37,0.01
2012-12-20,41,39,37,52,52,52,0,0,100,29.83,29.55,43,27,54,0.22
2012-12-21,42,38,38,52,52,52,0,0,100,29.86,29.61,21,8,26,0.19
2012-12-22,46,42,38,52,52,52,0,0,100,29.81,29.20,33,16,42,0.33
2012-12-23,50,44,42,52,52,52,0,0,100,29.44,28.91,46,20,59,0.17
2012-12-24,44,42,40,52,52,52,0,0,100,29.44,29.18,20,12,30,0.02
2012-12-25,41,40,38,52,52,52,0,0,100,29.30,29.08,22,10,31,0.02
2012-12-26,40,37,33,52,52,52,0,0,100,29.45,29.27,21,9,31,0.30
2012-12-27,37,35,33,52,52,52,0,0,100,29.91,29.31,24,11,31,0.15
2012-12-28,51,47,37,52,52,52,0,0,100,29.88,29.20,46,25,62,0.09
2012-12-29,51,42,37,52,52,52,0,0,100,29.22,29.16,34,16,46,0.05
2012-12-30,37,35,33,52,52,52,0,0,100,29.31,29.19,28,17,38,0.02
2012-12-31,49,43,34,52,52,52,0,0,100,29.29,28.99,34,18,51,0.06
2013-1-1,42,38,34,52,52,52,0,0,100,29.90,29.28,27,13,38,0.00